Time;durP1;ratioP1;P1;durP2;ratioP2;P2;SDS_P1;SDS_P2;PMS_P1;PMS_P2;Temp;Humidity;BMP_temperature;BMP_pressure;BME280_temperature;BME280_humidity;BME280_pressure;Samples;Min_cycle;Max_cycle;Signal;HPM_P1;HPM_P2
2021/09/16 00:00:59;;;;;;;17.50;10.02;;;18.40;99.90;;;;;;4972641;28;20209;-73
2021/09/16 00:03:25;;;;;;;16.85;10.38;;;18.40;99.90;;;;;;4973205;28;20109;-72
2021/09/16 00:05:51;;;;;;;20.58;11.27;;;18.50;99.90;;;;;;4973240;28;20033;-72
2021/09/16 00:08:16;;;;;;;15.57;9.60;;;18.40;99.90;;;;;;4972731;28;20042;-72
2021/09/16 00:10:42;;;;;;;17.25;10.18;;;18.30;99.90;;;;;;4971606;28;20042;-72
2021/09/16 00:13:08;;;;;;;14.55;8.45;;;18.20;99.90;;;;;;4972765;28;20035;-72
2021/09/16 00:15:34;;;;;;;15.65;8.90;;;18.30;99.90;;;;;;4972924;28;20057;-72
2021/09/16 00:18:00;;;;;;;17.80;9.73;;;18.20;99.90;;;;;;4971564;28;20318;-71
2021/09/16 00:20:26;;;;;;;18.00;9.50;;;18.30;99.90;;;;;;4972947;28;20115;-72
2021/09/16 00:22:51;;;;;;;15.93;8.50;;;18.20;99.90;;;;;;4972535;28;20042;-72
2021/09/16 00:25:17;;;;;;;13.93;8.80;;;18.20;99.90;;;;;;4972494;28;20046;-71
2021/09/16 00:27:42;;;;;;;11.93;7.68;;;18.20;99.90;;;;;;4972549;28;20062;-71
2021/09/16 00:30:10;;;;;;;13.05;7.90;;;18.20;99.90;;;;;;4972645;28;20023;-71
2021/09/16 00:32:37;;;;;;;12.33;7.30;;;18.20;99.90;;;;;;4972868;28;20023;-71
2021/09/16 00:35:03;;;;;;;12.23;7.40;;;18.20;99.90;;;;;;4972633;28;20039;-72
2021/09/16 00:37:29;;;;;;;10.35;7.32;;;18.20;99.90;;;;;;4972765;28;20418;-72
2021/09/16 00:39:54;;;;;;;11.10;8.20;;;18.10;99.90;;;;;;4972430;28;20751;-72
2021/09/16 00:42:20;;;;;;;12.18;7.88;;;18.10;99.90;;;;;;4972227;28;20039;-72
2021/09/16 00:44:46;;;;;;;11.93;6.88;;;18.00;99.90;;;;;;4972721;28;20019;-72
2021/09/16 00:47:13;;;;;;;13.15;6.70;;;18.10;99.90;;;;;;4972585;28;20054;-72
2021/09/16 00:49:38;;;;;;;12.52;6.15;;;18.10;99.90;;;;;;4972448;28;20039;-72
2021/09/16 00:52:06;;;;;;;11.48;5.45;;;18.10;99.90;;;;;;4972431;28;20034;-71
2021/09/16 00:54:33;;;;;;;14.45;5.80;;;18.20;99.90;;;;;;4972165;28;20469;-71
2021/09/16 00:57:01;;;;;;;12.35;5.30;;;18.20;99.90;;;;;;4975590;28;20035;-71
2021/09/16 00:59:26;;;;;;;15.37;5.03;;;18.20;99.90;;;;;;4976304;28;20035;-71
2021/09/16 01:01:52;;;;;;;11.80;4.55;;;18.30;99.90;;;;;;4976070;28;20265;-72
2021/09/16 01:04:17;;;;;;;9.98;4.30;;;18.20;99.90;;;;;;4975869;28;20484;-71
2021/09/16 01:06:43;;;;;;;9.13;4.35;;;18.20;99.90;;;;;;4975741;28;20457;-71
2021/09/16 01:09:11;;;;;;;6.38;3.75;;;18.10;99.90;;;;;;4974971;28;20058;-71
2021/09/16 01:11:37;;;;;;;6.30;4.05;;;18.20;99.90;;;;;;4976388;28;20046;-71
2021/09/16 01:14:03;;;;;;;6.63;3.53;;;18.20;99.90;;;;;;4976247;28;20035;-72
2021/09/16 01:16:29;;;;;;;8.32;3.97;;;18.20;99.90;;;;;;4975927;28;20042;-71
2021/09/16 01:18:55;;;;;;;7.30;3.70;;;18.20;99.90;;;;;;4976042;28;20453;-72
2021/09/16 01:21:21;;;;;;;7.20;3.70;;;18.20;99.90;;;;;;4974744;28;20042;-72
2021/09/16 01:23:49;;;;;;;10.50;4.20;;;18.20;99.90;;;;;;4976171;28;20027;-72
2021/09/16 01:26:15;;;;;;;9.30;4.80;;;18.20;99.90;;;;;;4975733;28;20146;-72
2021/09/16 01:28:40;;;;;;;8.55;4.20;;;18.20;99.90;;;;;;4975537;28;20508;-72
2021/09/16 01:31:06;;;;;;;8.50;4.97;;;18.20;99.90;;;;;;4975543;28;20049;-72
2021/09/16 01:33:31;;;;;;;8.85;4.75;;;18.20;99.90;;;;;;4975405;28;20049;-72
2021/09/16 01:35:57;;;;;;;10.43;5.50;;;18.10;99.90;;;;;;4975554;28;20037;-72
2021/09/16 01:38:22;;;;;;;11.35;4.90;;;18.20;99.90;;;;;;4995023;28;20121;-72
2021/09/16 01:40:48;;;;;;;11.77;4.75;;;18.20;99.90;;;;;;4994909;28;20172;-71
2021/09/16 01:43:15;;;;;;;6.57;4.22;;;18.20;99.90;;;;;;4994891;28;20113;-72
2021/09/16 01:45:41;;;;;;;7.70;3.60;;;18.20;99.90;;;;;;4994996;28;20050;-71
2021/09/16 01:48:06;;;;;;;11.60;3.70;;;18.00;99.90;;;;;;4994644;28;20026;-72
2021/09/16 01:50:32;;;;;;;10.27;3.47;;;18.00;99.90;;;;;;4995335;28;20084;-72
2021/09/16 01:52:58;;;;;;;6.28;2.17;;;18.10;99.90;;;;;;4994964;28;20106;-72
2021/09/16 01:55:24;;;;;;;3.88;2.20;;;17.90;99.90;;;;;;4994442;28;20380;-72
2021/09/16 01:57:49;;;;;;;4.00;2.00;;;17.80;99.90;;;;;;4994706;28;20097;-72
2021/09/16 02:00:15;;;;;;;4.60;1.92;;;17.70;99.90;;;;;;4994322;28;20062;-72
2021/09/16 02:02:42;;;;;;;8.38;1.60;;;17.70;99.90;;;;;;4994805;28;20054;-72
2021/09/16 02:05:08;;;;;;;7.97;1.60;;;17.70;99.90;;;;;;4994443;28;20373;-72
2021/09/16 02:07:34;;;;;;;3.67;1.30;;;17.80;99.90;;;;;;4993956;28;20541;-72
2021/09/16 02:10:00;;;;;;;4.20;1.55;;;17.70;99.90;;;;;;4994428;28;20125;-72
2021/09/16 02:12:25;;;;;;;4.95;1.88;;;17.80;99.90;;;;;;4994231;28;20038;-72
2021/09/16 02:14:51;;;;;;;2.15;1.67;;;17.60;99.90;;;;;;4994791;28;20065;-72
2021/09/16 02:17:16;;;;;;;5.13;1.50;;;17.60;99.90;;;;;;4994243;28;20030;-72
2021/09/16 02:19:43;;;;;;;3.80;1.30;;;17.70;99.90;;;;;;4994284;28;20089;-72
2021/09/16 02:22:09;;;;;;;2.65;1.20;;;17.70;99.90;;;;;;4994215;28;20043;-72
2021/09/16 02:24:34;;;;;;;7.20;2.03;;;17.70;99.90;;;;;;4994178;28;20423;-72
2021/09/16 02:27:00;;;;;;;5.50;1.40;;;17.70;99.90;;;;;;4994167;28;20059;-72
2021/09/16 02:29:26;;;;;;;4.93;1.27;;;17.70;99.90;;;;;;4993598;28;20555;-70
2021/09/16 02:31:51;;;;;;;7.03;1.77;;;17.70;99.90;;;;;;4994055;28;20157;-72
2021/09/16 02:34:17;;;;;;;3.83;1.08;;;17.60;99.90;;;;;;4993906;28;20120;-72
2021/09/16 02:36:43;;;;;;;7.32;1.73;;;17.50;99.90;;;;;;4993857;28;20516;-72
2021/09/16 02:39:08;;;;;;;1.83;1.15;;;17.40;99.90;;;;;;4992422;28;20054;-72
2021/09/16 02:41:34;;;;;;;4.35;1.20;;;17.40;99.90;;;;;;4974635;28;20094;-72
2021/09/16 02:44:00;;;;;;;2.80;1.10;;;17.40;99.90;;;;;;4990842;28;20425;-72
2021/09/16 02:46:25;;;;;;;7.47;1.15;;;17.50;99.90;;;;;;4993641;28;20030;-72
2021/09/16 02:48:51;;;;;;;7.75;1.40;;;17.50;99.90;;;;;;4993594;28;20058;-72
2021/09/16 02:51:16;;;;;;;5.47;1.10;;;17.40;99.90;;;;;;4993624;28;20030;-72
2021/09/16 02:53:42;;;;;;;9.23;1.40;;;17.40;99.90;;;;;;4994079;28;20038;-72
2021/09/16 02:56:08;;;;;;;7.18;1.58;;;17.40;99.90;;;;;;4993516;28;20495;-72
2021/09/16 02:58:34;;;;;;;3.78;1.33;;;17.40;99.90;;;;;;4993479;28;20054;-72
2021/09/16 03:00:59;;;;;;;2.88;1.10;;;17.40;99.90;;;;;;4993307;28;20034;-72
2021/09/16 03:03:25;;;;;;;4.60;1.10;;;17.20;99.90;;;;;;4992347;28;20053;-72
2021/09/16 03:05:50;;;;;;;6.00;1.20;;;17.20;99.90;;;;;;4992526;28;20049;-72
2021/09/16 03:08:16;;;;;;;4.05;0.82;;;17.30;99.90;;;;;;4993022;28;20054;-72
2021/09/16 03:10:42;;;;;;;9.00;1.25;;;17.30;99.90;;;;;;4993307;28;20045;-72
2021/09/16 03:13:08;;;;;;;6.25;1.67;;;17.30;99.90;;;;;;4993222;28;20027;-72
2021/09/16 03:15:33;;;;;;;4.78;0.95;;;17.20;99.90;;;;;;4993200;28;20049;-72
2021/09/16 03:17:59;;;;;;;1.98;0.85;;;17.30;99.90;;;;;;4992420;28;20058;-72
2021/09/16 03:20:25;;;;;;;6.50;1.52;;;17.10;99.90;;;;;;4993309;28;20031;-72
2021/09/16 03:22:50;;;;;;;4.10;0.95;;;17.20;99.90;;;;;;4993143;28;20035;-73
2021/09/16 03:25:16;;;;;;;7.45;1.45;;;17.20;99.90;;;;;;4993235;28;20499;-72
2021/09/16 03:27:42;;;;;;;5.40;0.60;;;17.10;99.90;;;;;;4991858;28;20038;-72
2021/09/16 03:30:12;;;;;;;2.58;0.90;;;17.10;99.90;;;;;;4991775;28;20065;-71
2021/09/16 03:32:38;;;;;;;2.72;0.77;;;17.10;99.90;;;;;;4993636;28;20468;-72
2021/09/16 03:35:05;;;;;;;6.18;1.20;;;17.10;99.90;;;;;;4992773;28;20464;-72
2021/09/16 03:37:30;;;;;;;5.55;1.33;;;17.10;99.90;;;;;;4992591;28;20038;-72
2021/09/16 03:39:56;;;;;;;6.97;1.15;;;17.10;99.90;;;;;;4993128;28;20035;-72
2021/09/16 03:42:21;;;;;;;1.60;0.75;;;17.10;99.90;;;;;;4991415;28;20393;-72
2021/09/16 03:44:47;;;;;;;3.35;0.85;;;17.10;99.90;;;;;;4992983;28;20116;-72
2021/09/16 03:47:14;;;;;;;4.40;0.90;;;17.10;99.90;;;;;;4992570;28;20050;-72
2021/09/16 03:49:40;;;;;;;5.47;0.80;;;17.10;99.90;;;;;;4992473;28;20026;-71
2021/09/16 03:52:08;;;;;;;5.88;1.20;;;17.10;99.90;;;;;;4992555;28;20034;-71
2021/09/16 03:54:34;;;;;;;2.42;0.88;;;17.00;99.90;;;;;;4992495;28;20556;-71
2021/09/16 03:57:00;;;;;;;5.25;0.95;;;17.00;99.90;;;;;;4992352;28;20110;-72
2021/09/16 03:59:26;;;;;;;15.68;1.23;;;17.10;99.90;;;;;;4992572;28;20026;-71
2021/09/16 04:01:52;;;;;;;5.43;0.98;;;17.10;99.70;;;;;;4992327;28;20030;-71
2021/09/16 04:04:17;;;;;;;1.88;0.60;;;17.00;99.30;;;;;;4992210;28;20076;-71
2021/09/16 04:06:43;;;;;;;4.88;0.65;;;17.00;99.00;;;;;;4992018;28;20034;-72
2021/09/16 04:09:08;;;;;;;5.82;0.55;;;17.00;98.60;;;;;;4992225;28;20058;-71
2021/09/16 04:11:34;;;;;;;1.95;0.40;;;16.90;98.40;;;;;;4992518;28;20030;-72
2021/09/16 04:13:59;;;;;;;4.15;0.70;;;16.80;98.20;;;;;;4992046;28;20034;-71
2021/09/16 04:16:25;;;;;;;4.55;0.55;;;16.90;98.40;;;;;;4992016;28;20034;-71
2021/09/16 04:18:50;;;;;;;1.23;0.40;;;16.90;98.00;;;;;;4991958;28;20411;-71
2021/09/16 04:21:16;;;;;;;4.43;1.00;;;17.00;98.10;;;;;;4990783;28;20081;-71
2021/09/16 04:23:42;;;;;;;2.00;0.57;;;17.00;98.10;;;;;;4992313;28;20085;-71
2021/09/16 04:26:07;;;;;;;2.47;0.50;;;17.00;97.70;;;;;;4991980;28;20045;-72
2021/09/16 04:28:33;;;;;;;2.53;0.50;;;17.00;97.60;;;;;;4992099;28;20022;-71
2021/09/16 04:30:59;;;;;;;1.65;0.30;;;16.90;97.40;;;;;;4990946;28;20116;-71
2021/09/16 04:33:24;;;;;;;5.75;0.85;;;17.00;97.70;;;;;;4991823;28;20037;-71
2021/09/16 04:35:50;;;;;;;2.65;0.57;;;17.00;97.70;;;;;;4992274;28;20033;-71
2021/09/16 04:38:16;;;;;;;3.45;0.50;;;17.00;97.50;;;;;;4991751;28;20026;-72
2021/09/16 04:40:42;;;;;;;3.30;0.68;;;17.00;97.40;;;;;;4991643;28;20053;-72
2021/09/16 04:43:08;;;;;;;2.92;1.00;;;16.90;97.10;;;;;;4991790;28;20443;-71
2021/09/16 04:45:34;;;;;;;3.80;0.40;;;17.00;97.60;;;;;;4991874;28;20032;-72
2021/09/16 04:48:00;;;;;;;2.65;0.60;;;17.00;97.60;;;;;;4991541;28;20034;-71
2021/09/16 04:50:25;;;;;;;4.28;0.50;;;17.10;97.50;;;;;;4991988;28;20362;-71
2021/09/16 04:52:52;;;;;;;2.42;0.70;;;17.00;97.00;;;;;;4991602;28;20512;-71
2021/09/16 04:55:17;;;;;;;3.58;0.77;;;17.10;97.40;;;;;;4991658;28;20104;-71
2021/09/16 04:57:43;;;;;;;2.38;0.85;;;17.10;97.30;;;;;;4991582;28;20042;-71
2021/09/16 05:00:09;;;;;;;3.47;0.88;;;17.10;97.10;;;;;;4991367;28;20031;-71
2021/09/16 05:02:34;;;;;;;2.83;0.68;;;17.10;97.10;;;;;;4991877;28;20030;-72
2021/09/16 05:05:00;;;;;;;3.03;0.57;;;17.10;97.20;;;;;;4991929;28;20037;-72
2021/09/16 05:07:26;;;;;;;3.33;0.90;;;17.10;97.00;;;;;;4991364;28;20066;-72
2021/09/16 05:09:51;;;;;;;5.57;1.02;;;17.10;97.10;;;;;;4991521;28;20364;-72
2021/09/16 05:12:17;;;;;;;3.47;1.10;;;17.10;97.00;;;;;;4991508;28;20096;-71
2021/09/16 05:14:42;;;;;;;1.20;0.60;;;17.10;97.10;;;;;;4991887;28;20045;-71
2021/09/16 05:17:08;;;;;;;6.40;0.68;;;17.10;97.00;;;;;;4991859;28;20030;-71
2021/09/16 05:19:33;;;;;;;2.95;0.70;;;17.10;97.10;;;;;;4991457;28;20038;-72
2021/09/16 05:21:59;;;;;;;5.15;1.27;;;17.10;97.00;;;;;;4991687;28;20084;-72
2021/09/16 05:24:24;;;;;;;6.93;0.85;;;17.10;97.10;;;;;;4991390;28;20042;-72
2021/09/16 05:26:50;;;;;;;1.42;0.70;;;17.10;96.90;;;;;;4991709;28;20037;-74
2021/09/16 05:29:16;;;;;;;6.93;1.30;;;17.10;97.00;;;;;;4991438;28;20023;-72
2021/09/16 05:31:42;;;;;;;2.13;0.50;;;17.20;97.00;;;;;;4984034;28;20042;-73
2021/09/16 05:34:07;;;;;;;3.25;0.90;;;17.10;97.00;;;;;;4971001;28;20377;-73
2021/09/16 05:36:33;;;;;;;10.23;0.98;;;17.10;97.00;;;;;;4971894;28;20027;-73
2021/09/16 05:38:59;;;;;;;0.75;0.60;;;17.10;97.00;;;;;;4971933;28;20090;-73
2021/09/16 05:41:24;;;;;;;3.65;0.90;;;17.20;97.00;;;;;;4972601;28;20243;-72
2021/09/16 05:43:51;;;;;;;1.98;0.80;;;17.20;96.90;;;;;;4972655;28;20105;-72
2021/09/16 05:46:17;;;;;;;4.25;0.70;;;17.00;96.90;;;;;;4974703;28;20041;-71
2021/09/16 05:48:42;;;;;;;2.95;0.60;;;17.10;97.10;;;;;;4975368;28;20038;-72
2021/09/16 05:51:08;;;;;;;7.00;1.02;;;17.10;97.20;;;;;;4975463;28;20023;-72
2021/09/16 05:53:33;;;;;;;2.25;0.93;;;17.10;97.10;;;;;;4975820;28;20106;-72
2021/09/16 05:55:59;;;;;;;4.32;1.00;;;17.00;97.20;;;;;;4975154;28;20086;-71
2021/09/16 05:58:25;;;;;;;6.82;0.88;;;17.10;97.30;;;;;;4974829;28;20078;-70
2021/09/16 06:00:50;;;;;;;1.40;0.70;;;17.20;97.60;;;;;;4974722;28;20053;-71
2021/09/16 06:03:16;;;;;;;3.90;1.10;;;17.20;97.60;;;;;;4974951;28;20026;-72
2021/09/16 06:05:41;;;;;;;4.10;0.90;;;17.20;97.70;;;;;;4975309;28;20105;-71
2021/09/16 06:08:07;;;;;;;8.20;1.52;;;17.20;97.80;;;;;;4974696;28;20058;-72
2021/09/16 06:10:33;;;;;;;3.92;1.15;;;17.20;97.90;;;;;;4974717;28;20606;-72
2021/09/16 06:12:58;;;;;;;2.92;0.65;;;17.20;97.90;;;;;;4974982;28;20489;-72
2021/09/16 06:15:24;;;;;;;7.60;0.75;;;17.20;97.70;;;;;;4974670;28;20035;-72
2021/09/16 06:17:50;;;;;;;5.10;1.20;;;17.20;97.90;;;;;;4975518;28;20102;-72
2021/09/16 06:20:16;;;;;;;2.88;0.90;;;17.30;98.00;;;;;;4974479;28;20350;-71
2021/09/16 06:22:46;;;;;;;9.15;1.05;;;17.30;97.90;;;;;;4974567;28;20034;-71
2021/09/16 06:25:12;;;;;;;7.15;1.25;;;17.30;97.90;;;;;;4974862;28;20056;-70
2021/09/16 06:27:37;;;;;;;5.75;1.10;;;17.40;97.80;;;;;;4974520;28;20457;-70
2021/09/16 06:30:04;;;;;;;5.70;0.93;;;17.30;97.90;;;;;;4973183;28;20022;-73
2021/09/16 06:32:29;;;;;;;3.42;0.93;;;17.30;97.80;;;;;;4974791;28;20019;-71
2021/09/16 06:34:55;;;;;;;6.65;1.70;;;17.40;97.80;;;;;;4974540;28;20465;-71
2021/09/16 06:37:20;;;;;;;1.98;0.60;;;17.40;97.90;;;;;;4974206;28;20264;-71
2021/09/16 06:39:47;;;;;;;6.80;0.75;;;17.30;97.80;;;;;;4974322;28;20027;-71
2021/09/16 06:42:12;;;;;;;6.63;1.13;;;17.30;97.90;;;;;;4974170;28;20023;-71
2021/09/16 06:44:38;;;;;;;4.22;0.98;;;17.20;97.80;;;;;;4974539;28;20049;-71
2021/09/16 06:47:04;;;;;;;3.05;1.10;;;17.20;97.80;;;;;;4974337;28;20130;-71
2021/09/16 06:49:33;;;;;;;4.88;0.93;;;17.20;97.80;;;;;;4974104;28;20026;-72
2021/09/16 06:51:59;;;;;;;5.40;1.58;;;17.10;97.90;;;;;;4974073;28;20369;-71
2021/09/16 06:54:25;;;;;;;3.72;0.93;;;17.10;98.00;;;;;;4973010;28;20105;-71
2021/09/16 06:56:50;;;;;;;5.47;0.90;;;17.10;98.00;;;;;;4974546;28;20508;-70
2021/09/16 06:59:16;;;;;;;4.43;1.10;;;17.20;97.90;;;;;;4973959;28;20376;-71
2021/09/16 07:01:41;;;;;;;4.25;1.40;;;17.30;97.90;;;;;;4973631;28;20042;-70
2021/09/16 07:04:07;;;;;;;4.68;1.33;;;17.40;97.80;;;;;;4974005;28;20453;-70
2021/09/16 07:06:33;;;;;;;7.13;1.10;;;17.40;97.70;;;;;;4972570;28;20129;-71
2021/09/16 07:08:58;;;;;;;2.80;1.02;;;17.40;97.70;;;;;;4973595;28;20054;-72
2021/09/16 07:11:24;;;;;;;7.30;1.30;;;17.60;97.70;;;;;;4973895;28;20088;-71
2021/09/16 07:13:49;;;;;;;5.13;1.00;;;17.50;97.50;;;;;;4973870;28;20031;-70
2021/09/16 07:16:15;;;;;;;5.35;1.30;;;17.60;97.50;;;;;;4973578;28;20062;-71
2021/09/16 07:18:40;;;;;;;3.42;1.10;;;17.50;97.40;;;;;;4973850;28;20041;-70
2021/09/16 07:21:06;;;;;;;7.28;1.58;;;17.60;97.50;;;;;;4973553;28;20357;-71
2021/09/16 07:23:32;;;;;;;5.63;1.20;;;17.70;97.40;;;;;;4974017;28;20318;-69
2021/09/16 07:25:57;;;;;;;7.20;1.67;;;17.80;97.20;;;;;;4973622;28;20492;-69
2021/09/16 07:28:23;;;;;;;8.80;1.13;;;17.80;97.20;;;;;;4973450;28;20170;-70
2021/09/16 07:30:48;;;;;;;5.60;1.25;;;17.90;97.20;;;;;;4973444;28;20034;-70
2021/09/16 07:33:14;;;;;;;4.53;1.33;;;17.90;97.20;;;;;;4973446;28;20033;-70
2021/09/16 07:35:40;;;;;;;3.78;1.23;;;17.90;97.00;;;;;;4973895;28;20485;-71
2021/09/16 07:38:05;;;;;;;5.20;1.20;;;17.90;97.10;;;;;;4973191;28;20057;-71
2021/09/16 07:40:32;;;;;;;4.55;0.90;;;17.80;97.00;;;;;;4973024;28;20077;-71
2021/09/16 07:42:57;;;;;;;3.55;1.00;;;17.80;97.10;;;;;;4973286;28;20329;-71
2021/09/16 07:45:23;;;;;;;4.30;1.10;;;17.70;97.10;;;;;;4969664;28;20038;-71
2021/09/16 07:47:48;;;;;;;8.07;1.13;;;17.70;97.10;;;;;;4954345;28;20031;-71
2021/09/16 07:50:14;;;;;;;4.53;1.13;;;17.70;97.30;;;;;;4972143;28;20035;-71
2021/09/16 07:52:40;;;;;;;4.80;1.30;;;17.70;97.20;;;;;;4973168;28;20412;-71
2021/09/16 07:55:06;;;;;;;4.88;1.25;;;17.70;97.20;;;;;;4972859;28;20038;-70
2021/09/16 07:57:32;;;;;;;2.75;1.15;;;17.70;97.30;;;;;;4972610;28;20043;-70
2021/09/16 07:59:57;;;;;;;7.93;1.48;;;17.70;97.40;;;;;;4972410;28;20090;-69
2021/09/16 08:02:23;;;;;;;8.75;1.38;;;17.70;97.50;;;;;;4973154;28;20022;-74
2021/09/16 08:04:49;;;;;;;4.57;1.40;;;17.60;97.60;;;;;;4972445;28;20027;-70
2021/09/16 08:07:14;;;;;;;7.15;1.80;;;17.70;97.80;;;;;;4972519;28;20122;-70
2021/09/16 08:09:40;;;;;;;7.25;1.55;;;17.70;98.40;;;;;;4972387;28;20035;-70
2021/09/16 08:12:06;;;;;;;8.25;1.50;;;17.60;98.90;;;;;;4972591;28;20107;-70
2021/09/16 08:14:31;;;;;;;5.55;1.40;;;17.60;99.30;;;;;;4972962;28;20110;-70
2021/09/16 08:16:58;;;;;;;5.10;1.30;;;17.40;99.60;;;;;;4972526;28;20424;-71
2021/09/16 08:19:23;;;;;;;8.15;1.63;;;17.40;99.40;;;;;;4972454;28;20046;-70
2021/09/16 08:21:49;;;;;;;7.07;1.58;;;17.30;99.60;;;;;;4972452;28;20465;-71
2021/09/16 08:24:15;;;;;;;8.32;1.25;;;17.40;99.70;;;;;;4972600;28;20031;-71
2021/09/16 08:26:41;;;;;;;5.05;1.38;;;17.50;99.80;;;;;;4972761;28;20038;-70
2021/09/16 08:29:06;;;;;;;4.88;1.35;;;17.40;99.90;;;;;;4972421;28;20043;-70
2021/09/16 08:31:32;;;;;;;5.20;1.40;;;17.50;99.70;;;;;;4972331;28;20031;-71
2021/09/16 08:33:58;;;;;;;10.43;1.55;;;17.30;99.60;;;;;;4972402;28;20049;-72
2021/09/16 08:36:24;;;;;;;4.88;1.65;;;17.40;99.90;;;;;;4972137;28;20047;-71
2021/09/16 08:38:49;;;;;;;5.95;1.80;;;17.30;99.90;;;;;;4972905;28;20464;-69
2021/09/16 08:41:15;;;;;;;4.18;1.45;;;17.40;99.90;;;;;;4972315;28;20045;-70
2021/09/16 08:43:43;;;;;;;4.57;1.60;;;17.40;99.90;;;;;;4971975;28;20034;-72
2021/09/16 08:46:08;;;;;;;5.32;1.73;;;17.50;99.90;;;;;;4972140;28;20129;-72
2021/09/16 08:48:34;;;;;;;8.40;1.50;;;17.50;99.90;;;;;;4971940;28;20063;-71
2021/09/16 08:51:00;;;;;;;16.05;2.05;;;17.60;99.80;;;;;;4972084;28;20691;-70
2021/09/16 08:53:28;;;;;;;6.38;1.60;;;17.50;99.70;;;;;;4971597;28;20054;-72
2021/09/16 08:55:55;;;;;;;;;;;17.50;99.60;;;;;;4972835;28;20085;-71
2021/09/16 08:58:25;;;;;;;7.15;3.67;;;17.40;99.90;;;;;;4972380;28;19921;-71
2021/09/16 09:00:50;;;;;;;4.40;1.70;;;17.40;99.80;;;;;;4971949;28;20178;-71
2021/09/16 09:03:16;;;;;;;5.10;1.55;;;17.40;99.90;;;;;;4970834;28;20125;-70
2021/09/16 09:05:43;;;;;;;6.15;2.00;;;17.50;99.90;;;;;;4972499;28;20477;-72
2021/09/16 09:08:09;;;;;;;7.90;2.47;;;17.60;99.80;;;;;;4953513;28;20058;-72
2021/09/16 09:10:53;;;;;;;4.03;1.88;;;17.60;99.70;;;;;;4965765;28;20366;-72
2021/09/16 09:13:30;;;;;;;5.03;1.98;;;17.60;99.80;;;;;;4972210;28;20122;-73
2021/09/16 09:16:05;;;;;;;7.57;2.58;;;17.60;99.80;;;;;;4972099;28;20034;-70
2021/09/16 09:18:42;;;;;;;11.23;2.70;;;17.50;99.80;;;;;;4975761;28;20118;-70
2021/09/16 09:21:09;;;;;;;7.05;2.60;;;17.50;99.90;;;;;;4974504;28;20085;-71
2021/09/16 09:23:37;;;;;;;3.85;2.50;;;17.50;99.90;;;;;;4976031;28;20034;-71
2021/09/16 09:26:28;;;;;;;11.10;4.05;;;17.50;99.80;;;;;;4974779;28;20484;-71
2021/09/16 09:29:13;;;;;;;10.15;2.88;;;17.60;99.80;;;;;;4975585;28;20026;-73
2021/09/16 09:31:52;;;;;;;4.28;2.28;;;17.60;99.90;;;;;;4975578;28;20089;-70
2021/09/16 09:34:36;;;;;;;7.88;2.65;;;17.50;99.90;;;;;;4975460;28;20034;-70
2021/09/16 09:37:17;;;;;;;5.65;2.55;;;17.40;99.90;;;;;;4975262;28;20122;-70
2021/09/16 09:39:47;;;;;;;4.65;2.40;;;17.40;99.90;;;;;;4975460;28;20058;-70
2021/09/16 09:42:27;;;;;;;9.18;3.13;;;17.60;99.90;;;;;;4975139;28;20054;-74
2021/09/16 09:44:55;;;;;;;6.95;2.50;;;17.80;99.90;;;;;;4975627;28;20400;-72
2021/09/16 09:47:43;;;;;;;10.15;2.85;;;18.00;99.50;;;;;;4975493;28;20041;-72
2021/09/16 09:50:18;;;;;;;9.90;3.15;;;18.10;99.40;;;;;;4975020;28;20339;-73
2021/09/16 09:52:44;;;;;;;6.43;2.63;;;18.70;98.80;;;;;;4975413;28;20035;-73
2021/09/16 09:55:14;;;;;;;5.47;2.10;;;19.10;98.10;;;;;;4975210;28;20109;-73
2021/09/16 09:57:40;;;;;;;7.50;2.50;;;19.50;97.60;;;;;;4975011;28;20677;-72
2021/09/16 10:00:07;;;;;;;11.40;2.72;;;19.30;97.30;;;;;;4974479;28;20031;-72
2021/09/16 10:02:53;;;;;;;4.75;2.72;;;19.10;97.40;;;;;;4975345;28;20042;-73
2021/09/16 10:05:22;;;;;;;5.07;2.13;;;19.40;97.20;;;;;;4975134;28;20030;-75
2021/09/16 10:07:49;;;;;;;7.53;2.33;;;19.30;97.10;;;;;;4974568;28;20169;-73
2021/09/16 10:10:15;;;;;;;6.35;2.17;;;19.90;97.00;;;;;;4974991;28;20062;-74
2021/09/16 10:12:43;;;;;;;5.35;2.13;;;20.10;95.90;;;;;;4974900;28;20052;-73
2021/09/16 10:15:12;;;;;;;8.88;2.45;;;20.00;95.80;;;;;;4975013;28;20557;-72
2021/09/16 10:17:39;;;;;;;4.90;2.42;;;20.10;95.70;;;;;;4975265;28;20030;-73
2021/09/16 10:20:07;;;;;;;11.60;2.85;;;20.90;95.20;;;;;;4974807;28;20027;-73
2021/09/16 10:22:34;;;;;;;7.38;2.55;;;21.80;94.10;;;;;;4974785;28;20042;-70
2021/09/16 10:24:59;;;;;;;6.68;2.88;;;22.30;93.30;;;;;;4974952;28;20033;-72
2021/09/16 10:27:29;;;;;;;7.05;3.22;;;22.70;93.80;;;;;;4974798;28;20365;-72
2021/09/16 10:29:56;;;;;;;18.30;9.75;;;22.10;92.80;;;;;;4974831;28;20457;-72
2021/09/16 10:32:21;;;;;;;6.22;2.42;;;22.30;92.70;;;;;;4974419;28;20129;-70
2021/09/16 10:34:56;;;;;;;6.82;2.25;;;22.20;92.30;;;;;;4974910;28;20107;-70
2021/09/16 10:37:24;;;;;;;7.93;2.85;;;22.30;92.20;;;;;;4974770;28;20031;-71
2021/09/16 10:39:50;;;;;;;7.95;2.42;;;22.30;92.20;;;;;;4974761;28;20321;-74
2021/09/16 10:42:17;;;;;;;12.35;2.28;;;22.10;91.90;;;;;;4974276;28;20097;-74
2021/09/16 10:45:03;;;;;;;3.58;2.17;;;21.50;92.50;;;;;;4974755;28;20033;-70
2021/09/16 10:47:29;;;;;;;8.88;2.75;;;21.60;92.90;;;;;;4974409;28;20031;-74
2021/09/16 10:49:54;;;;;;;10.05;2.42;;;21.00;93.10;;;;;;4974299;28;20034;-77
2021/09/16 10:52:24;;;;;;;6.63;2.47;;;20.50;93.60;;;;;;4974257;28;20166;-78
2021/09/16 10:54:57;;;;;;;5.13;2.58;;;20.50;94.20;;;;;;4974786;28;20074;-77
2021/09/16 10:57:28;;;;;;;10.88;3.30;;;20.70;93.90;;;;;;4974556;28;20096;-80
2021/09/16 10:59:54;;;;;;;6.13;2.60;;;20.40;94.30;;;;;;4974478;28;20034;-79
2021/09/16 11:02:23;;;;;;;7.45;2.95;;;20.30;94.90;;;;;;4974250;28;20030;-78
2021/09/16 11:04:55;;;;;;;7.97;2.63;;;20.30;94.60;;;;;;4973882;28;20426;-79
2021/09/16 11:07:37;;;;;;;10.38;3.10;;;20.20;94.50;;;;;;4973791;28;20538;-75
2021/09/16 11:10:15;;;;;;;8.70;2.50;;;20.20;94.80;;;;;;4973851;28;20053;-77
2021/09/16 11:13:04;;;;;;;7.72;2.85;;;20.30;94.60;;;;;;4973773;28;20039;-76
2021/09/16 11:15:33;;;;;;;7.38;2.88;;;20.20;94.60;;;;;;4973811;28;20039;-76
2021/09/16 11:18:08;;;;;;;6.55;2.85;;;20.10;94.70;;;;;;4972764;28;20045;-76
2021/09/16 11:20:36;;;;;;;8.82;2.53;;;20.00;94.70;;;;;;4974000;28;20030;-78
2021/09/16 11:23:02;;;;;;;12.30;3.33;;;20.10;94.70;;;;;;4972944;28;20039;-77
2021/09/16 11:25:42;;;;;;;7.50;2.40;;;19.80;95.10;;;;;;4973590;28;20039;-76
2021/09/16 11:28:09;;;;;;;6.80;2.67;;;19.80;94.90;;;;;;4973500;28;20069;-76
2021/09/16 11:30:36;;;;;;;9.27;2.65;;;19.80;95.10;;;;;;4972504;28;20050;-77
2021/09/16 11:33:07;;;;;;;13.52;3.72;;;19.90;95.00;;;;;;4973193;28;20030;-76
2021/09/16 11:35:33;;;;;;;6.35;2.75;;;19.90;95.00;;;;;;4973811;28;20023;-78
2021/09/16 11:38:02;;;;;;;6.25;2.40;;;19.80;95.20;;;;;;4973314;28;20052;-78
2021/09/16 11:40:36;;;;;;;20.20;9.70;;;19.70;95.00;;;;;;4972903;28;20575;-78
2021/09/16 11:43:07;;;;;;;7.88;3.33;;;19.70;95.30;;;;;;4973357;28;20043;-78
2021/09/16 11:45:36;;;;;;;5.75;2.78;;;19.80;95.20;;;;;;4973174;28;20038;-78
2021/09/16 11:48:11;;;;;;;5.20;2.80;;;19.60;95.50;;;;;;4973138;28;20030;-78
2021/09/16 11:50:58;;;;;;;10.95;3.13;;;19.50;95.60;;;;;;4973504;28;20023;-77
2021/09/16 11:53:33;;;;;;;15.07;6.53;;;19.50;95.90;;;;;;4953791;28;20106;-79
2021/09/16 11:56:02;;;;;;;7.88;2.67;;;19.60;95.90;;;;;;4969706;28;20658;-77
2021/09/16 11:58:32;;;;;;;9.13;3.05;;;19.40;95.90;;;;;;4972873;28;20046;-78
2021/09/16 12:01:04;;;;;;;9.98;2.70;;;19.40;96.20;;;;;;4972702;28;20047;-77
2021/09/16 12:03:40;;;;;;;5.38;2.40;;;19.50;96.20;;;;;;4973258;28;20346;-80
2021/09/16 12:06:10;;;;;;;10.40;4.05;;;19.40;96.00;;;;;;4972871;28;20022;-76
2021/09/16 12:08:38;;;;;;;16.60;8.55;;;19.20;96.20;;;;;;4972076;28;20086;-77
2021/09/16 12:11:14;;;;;;;11.25;3.35;;;19.50;96.10;;;;;;4972740;28;20248;-77
2021/09/16 12:13:45;;;;;;;9.93;2.90;;;19.40;96.00;;;;;;4972921;28;20274;-76
2021/09/16 12:16:12;;;;;;;11.07;2.50;;;19.50;95.80;;;;;;4972933;28;20445;-77
2021/09/16 12:18:41;;;;;;;11.68;3.63;;;19.40;95.70;;;;;;4973077;28;20042;-79
2021/09/16 12:21:09;;;;;;;7.63;2.65;;;19.40;96.00;;;;;;4972698;28;20031;-77
2021/09/16 12:23:39;;;;;;;10.60;2.92;;;19.40;95.90;;;;;;4972989;28;20120;-77
2021/09/16 12:26:07;;;;;;;5.63;2.63;;;19.40;96.00;;;;;;4972236;28;20373;-77
2021/09/16 12:29:02;;;;;;;4.80;2.42;;;19.50;95.80;;;;;;4972514;28;20086;-77
2021/09/16 12:31:36;;;;;;;4.55;2.38;;;19.50;95.80;;;;;;4972658;28;20065;-77
2021/09/16 12:34:05;;;;;;;10.35;3.17;;;19.50;95.70;;;;;;4972729;28;20130;-77
2021/09/16 12:36:32;;;;;;;7.40;2.70;;;19.60;95.60;;;;;;4971568;28;20054;-77
2021/09/16 12:39:10;;;;;;;10.18;2.78;;;19.50;95.70;;;;;;4972624;28;20037;-74
2021/09/16 12:41:42;;;;;;;8.60;3.10;;;19.50;95.80;;;;;;4972720;28;20023;-77
2021/09/16 12:44:17;;;;;;;11.45;2.78;;;19.60;95.70;;;;;;4972309;28;20061;-77
2021/09/16 12:46:47;;;;;;;7.32;2.78;;;19.60;95.70;;;;;;4972229;28;20477;-78